Time;durP1;ratioP1;P1;durP2;ratioP2;P2;SDS_P1;SDS_P2;PMS_P1;PMS_P2;Temp;Humidity;BMP_temperature;BMP_pressure;BME280_temperature;BME280_humidity;BME280_pressure;Samples;Min_cycle;Max_cycle;Signal;HPM_P1;HPM_P2
2023/03/04 00:01:42;;;;;;;56.13;27.63;;;1.90;99.90;;;;;;5003815;28;20275;-83
2023/03/04 00:04:07;;;;;;;55.97;26.43;;;1.90;99.90;;;;;;5002929;28;20247;-82
2023/03/04 00:06:33;;;;;;;51.77;26.67;;;1.90;99.90;;;;;;5003078;28;20271;-82
2023/03/04 00:08:59;;;;;;;51.87;28.00;;;1.90;99.90;;;;;;5004089;28;20234;-82
2023/03/04 00:11:25;;;;;;;52.37;26.27;;;1.90;99.90;;;;;;5003537;28;20270;-82
2023/03/04 00:13:51;;;;;;;55.33;26.63;;;2.00;99.90;;;;;;5002930;28;20195;-82
2023/03/04 00:16:17;;;;;;;54.43;25.63;;;2.00;99.90;;;;;;5002822;28;20187;-83
2023/03/04 00:18:42;;;;;;;54.30;27.00;;;2.00;99.90;;;;;;5002983;28;20179;-82
2023/03/04 00:21:08;;;;;;;59.07;28.73;;;2.00;99.90;;;;;;5003055;28;20270;-84
2023/03/04 00:23:34;;;;;;;55.97;27.93;;;2.00;99.90;;;;;;5002432;28;20583;-82
2023/03/04 00:25:59;;;;;;;59.17;28.50;;;1.90;99.90;;;;;;5003341;28;20218;-82
2023/03/04 00:28:25;;;;;;;55.43;26.60;;;1.90;99.90;;;;;;5003793;28;20176;-82
2023/03/04 00:30:51;;;;;;;53.33;25.53;;;2.00;99.90;;;;;;5003889;28;20276;-83
2023/03/04 00:33:17;;;;;;;56.70;27.13;;;2.00;99.90;;;;;;5002970;28;20616;-82
2023/03/04 00:35:43;;;;;;;53.73;27.47;;;2.00;99.90;;;;;;5003692;28;20221;-83
2023/03/04 00:38:09;;;;;;;50.57;25.57;;;2.00;99.90;;;;;;5002871;28;20192;-83
2023/03/04 00:40:34;;;;;;;56.97;26.63;;;2.00;99.90;;;;;;5003366;28;20184;-83
2023/03/04 00:43:01;;;;;;;54.97;26.60;;;2.00;99.90;;;;;;5003562;28;20239;-83
2023/03/04 00:45:27;;;;;;;49.20;26.10;;;2.00;99.90;;;;;;5002955;28;20672;-83
2023/03/04 00:47:52;;;;;;;59.90;27.23;;;2.00;99.90;;;;;;5003806;28;20184;-81
2023/03/04 00:50:18;;;;;;;60.10;27.30;;;2.00;99.90;;;;;;5003505;28;20199;-82
2023/03/04 00:52:44;;;;;;;49.77;25.53;;;2.00;99.90;;;;;;5003963;28;20669;-81
2023/03/04 00:55:09;;;;;;;54.50;27.00;;;2.00;99.90;;;;;;5006204;28;20202;-81
2023/03/04 00:57:35;;;;;;;59.93;25.63;;;2.00;99.90;;;;;;5005689;28;20187;-82
2023/03/04 01:00:01;;;;;;;52.73;26.57;;;2.10;99.90;;;;;;5006043;28;20184;-82
2023/03/04 01:02:27;;;;;;;60.10;26.27;;;2.00;99.90;;;;;;5002656;28;20239;-83
2023/03/04 01:04:52;;;;;;;51.20;27.70;;;2.10;99.90;;;;;;5003320;28;20214;-83
2023/03/04 01:07:18;;;;;;;50.93;27.50;;;2.10;99.90;;;;;;5003277;28;20215;-84
2023/03/04 01:09:44;;;;;;;46.40;25.13;;;2.10;99.90;;;;;;5003220;28;20274;-84
2023/03/04 01:12:09;;;;;;;51.10;25.93;;;2.10;99.90;;;;;;5003749;28;20211;-82
2023/03/04 01:14:35;;;;;;;53.40;25.67;;;2.20;99.90;;;;;;5003435;28;20206;-83
2023/03/04 01:17:01;;;;;;;54.83;26.50;;;2.20;99.90;;;;;;5004208;28;20218;-83
2023/03/04 01:19:27;;;;;;;47.47;25.97;;;2.20;99.90;;;;;;5004929;28;20180;-83
2023/03/04 01:21:52;;;;;;;51.90;27.17;;;2.30;99.90;;;;;;5005158;28;20242;-84
2023/03/04 01:24:18;;;;;;;46.63;24.53;;;2.30;99.90;;;;;;5004982;28;20229;-83
2023/03/04 01:26:44;;;;;;;50.20;22.97;;;2.30;99.90;;;;;;5004985;28;20182;-83
2023/03/04 01:29:10;;;;;;;40.47;24.43;;;2.40;99.90;;;;;;5007367;28;20242;-82
2023/03/04 01:31:35;;;;;;;38.87;22.30;;;2.40;99.90;;;;;;5006873;28;20266;-83
2023/03/04 01:34:01;;;;;;;44.07;23.90;;;2.40;99.90;;;;;;5003565;28;20199;-83
2023/03/04 01:36:27;;;;;;;39.23;22.60;;;2.40;99.90;;;;;;5003760;28;20230;-83
2023/03/04 01:38:52;;;;;;;49.40;23.10;;;2.40;99.90;;;;;;5003655;28;20234;-83
2023/03/04 01:41:24;;;;;;;48.93;24.10;;;2.40;99.90;;;;;;5004102;28;20779;-83
2023/03/04 01:43:50;;;;;;;38.57;21.87;;;2.40;99.90;;;;;;5003803;28;20212;-82
2023/03/04 01:46:16;;;;;;;44.73;23.13;;;2.40;99.90;;;;;;5001232;28;20660;-82
2023/03/04 01:48:43;;;;;;;42.27;23.30;;;2.40;99.90;;;;;;4999852;28;20176;-82
2023/03/04 01:51:16;;;;;;;43.70;24.43;;;2.40;99.90;;;;;;5000922;28;20641;-82
2023/03/04 01:53:44;;;;;;;42.90;22.50;;;2.40;99.90;;;;;;5018750;28;20191;-83
2023/03/04 01:56:18;;;;;;;44.33;22.53;;;2.40;99.90;;;;;;5002382;28;20218;-83
2023/03/04 01:58:44;;;;;;;43.40;22.50;;;2.40;99.90;;;;;;5006645;28;20703;-82
2023/03/04 02:01:11;;;;;;;40.50;21.90;;;2.50;99.90;;;;;;5010465;28;20242;-82
2023/03/04 02:03:38;;;;;;;42.53;22.20;;;2.50;99.90;;;;;;5011478;28;20200;-81
2023/03/04 02:06:04;;;;;;;45.53;21.40;;;2.50;99.90;;;;;;5009417;28;20275;-82
2023/03/04 02:08:29;;;;;;;41.23;20.87;;;2.50;99.90;;;;;;5005153;28;20184;-82
2023/03/04 02:10:55;;;;;;;45.67;22.40;;;2.50;99.90;;;;;;5003354;28;20247;-84
2023/03/04 02:13:21;;;;;;;38.80;21.37;;;2.50;99.90;;;;;;5021566;28;20536;-82
2023/03/04 02:15:48;;;;;;;42.00;20.27;;;2.60;99.90;;;;;;5003826;28;20599;-84
2023/03/04 02:18:22;;;;;;;32.53;19.50;;;2.60;99.90;;;;;;5003652;28;20183;-83
2023/03/04 02:21:12;;;;;;;38.83;20.53;;;2.60;99.90;;;;;;5021330;28;20529;-83
2023/03/04 02:23:47;;;;;;;34.50;19.93;;;2.60;99.90;;;;;;5020717;28;20211;-83
2023/03/04 02:26:25;;;;;;;39.87;20.20;;;2.60;99.90;;;;;;5003258;28;20214;-84
2023/03/04 02:28:52;;;;;;;28.73;14.87;;;2.60;99.90;;;;;;5002865;28;20183;-83
2023/03/04 02:31:41;;;;;;;28.73;13.73;;;2.70;99.90;;;;;;5003080;28;20199;-83
2023/03/04 02:34:12;;;;;;;29.70;17.23;;;2.80;99.90;;;;;;5002906;28;20196;-83
2023/03/04 02:36:39;;;;;;;32.93;18.63;;;2.80;99.90;;;;;;5003208;28;20172;-83
2023/03/04 02:39:31;;;;;;;39.00;18.80;;;2.80;99.90;;;;;;5002929;28;20537;-83
2023/03/04 02:41:57;;;;;;;34.00;19.43;;;2.80;99.90;;;;;;4993717;28;20668;-82
2023/03/04 02:44:26;;;;;;;37.73;18.60;;;2.80;99.90;;;;;;5000002;28;20207;-82
2023/03/04 02:46:53;;;;;;;33.07;18.80;;;2.70;99.90;;;;;;5015937;28;20175;-83
2023/03/04 02:49:20;;;;;;;38.80;17.67;;;2.70;99.90;;;;;;4998735;28;20168;-82
2023/03/04 02:51:49;;;;;;;36.03;15.47;;;2.80;99.90;;;;;;4999270;28;20182;-82
2023/03/04 02:54:17;;;;;;;23.03;11.07;;;2.80;99.90;;;;;;5017166;28;20742;-81
2023/03/04 02:56:47;;;;;;;22.13;10.33;;;2.90;99.90;;;;;;5000769;28;20237;-82
2023/03/04 02:59:12;;;;;;;20.27;9.80;;;2.90;99.90;;;;;;5001247;28;20203;-82
2023/03/04 03:01:38;;;;;;;22.50;10.07;;;3.10;99.90;;;;;;5000264;28;20648;-82
2023/03/04 03:04:04;;;;;;;19.20;9.37;;;3.20;99.90;;;;;;5000300;28;20242;-82
2023/03/04 03:06:30;;;;;;;21.30;9.00;;;3.20;99.90;;;;;;5000208;28;20199;-82
2023/03/04 03:08:56;;;;;;;22.93;10.07;;;3.30;99.90;;;;;;5000267;28;20179;-82
2023/03/04 03:11:22;;;;;;;24.67;9.50;;;3.30;99.90;;;;;;5000128;28;20180;-82
2023/03/04 03:13:47;;;;;;;20.43;8.63;;;3.40;99.90;;;;;;5000625;28;20195;-81
2023/03/04 03:16:13;;;;;;;26.30;9.10;;;3.50;99.90;;;;;;5000350;28;20176;-80
2023/03/04 03:18:40;;;;;;;23.87;9.63;;;3.50;99.90;;;;;;5001654;28;20207;-80
2023/03/04 03:21:06;;;;;;;12.77;8.73;;;3.50;99.90;;;;;;5020594;28;20577;-81
2023/03/04 03:23:32;;;;;;;24.00;9.87;;;3.50;99.90;;;;;;5004725;28;20269;-80
2023/03/04 03:25:58;;;;;;;15.70;8.60;;;3.50;99.90;;;;;;5004438;28;20211;-81
2023/03/04 03:28:24;;;;;;;19.87;9.10;;;3.60;99.90;;;;;;5022580;28;20175;-80
2023/03/04 03:30:49;;;;;;;18.13;8.50;;;3.60;99.90;;;;;;5004677;28;20184;-82
2023/03/04 03:33:15;;;;;;;17.80;8.43;;;3.70;99.90;;;;;;5004902;28;20244;-82
2023/03/04 03:35:41;;;;;;;24.53;10.17;;;3.70;99.90;;;;;;5004620;28;20633;-82
2023/03/04 03:38:07;;;;;;;13.50;8.33;;;3.70;99.90;;;;;;5004142;28;20180;-82
2023/03/04 03:40:32;;;;;;;13.33;7.40;;;3.70;99.90;;;;;;5003906;28;20183;-82
2023/03/04 03:42:58;;;;;;;19.50;8.60;;;3.80;99.90;;;;;;5021782;28;20238;-82
2023/03/04 03:45:24;;;;;;;16.17;8.20;;;3.70;99.90;;;;;;5004069;28;20280;-82
2023/03/04 03:47:50;;;;;;;18.00;8.40;;;3.70;99.90;;;;;;5003957;28;20179;-81
2023/03/04 03:50:15;;;;;;;18.23;8.83;;;3.70;99.90;;;;;;5003106;28;20543;-81
2023/03/04 03:52:41;;;;;;;16.87;8.07;;;3.70;99.90;;;;;;5004055;28;20267;-81
2023/03/04 03:55:08;;;;;;;15.87;8.90;;;3.70;99.90;;;;;;5003458;28;20176;-82
2023/03/04 03:57:33;;;;;;;17.93;9.10;;;3.70;99.90;;;;;;5003824;28;20197;-82
2023/03/04 04:00:00;;;;;;;20.27;8.67;;;3.70;99.90;;;;;;5003671;28;20824;-81
2023/03/04 04:02:26;;;;;;;21.83;8.60;;;3.70;99.90;;;;;;5003166;28;20172;-81
2023/03/04 04:04:52;;;;;;;20.07;7.87;;;3.60;99.90;;;;;;5002486;28;20302;-81
2023/03/04 04:07:18;;;;;;;16.93;8.53;;;3.60;99.90;;;;;;5002681;28;20190;-81
2023/03/04 04:09:43;;;;;;;17.03;8.77;;;3.60;99.90;;;;;;5003794;28;20219;-83
2023/03/04 04:12:13;;;;;;;16.60;8.27;;;3.60;99.90;;;;;;5002893;28;20202;-82
2023/03/04 04:14:39;;;;;;;15.13;8.50;;;3.70;99.90;;;;;;5002677;28;20645;-82
2023/03/04 04:17:05;;;;;;;22.43;8.67;;;3.70;99.90;;;;;;5003071;28;20186;-82
2023/03/04 04:19:30;;;;;;;16.30;7.70;;;3.70;99.90;;;;;;5003633;28;20191;-82
2023/03/04 04:21:56;;;;;;;17.63;8.30;;;3.70;99.90;;;;;;5003668;28;20179;-83
2023/03/04 04:24:22;;;;;;;17.77;8.93;;;3.70;99.90;;;;;;5002890;28;20210;-83
2023/03/04 04:26:48;;;;;;;21.73;8.33;;;3.70;99.90;;;;;;5002912;28;20183;-82
2023/03/04 04:29:15;;;;;;;15.20;7.73;;;3.70;99.90;;;;;;5003855;28;20200;-82
2023/03/04 04:31:40;;;;;;;16.20;7.83;;;3.70;99.90;;;;;;5022853;28;20207;-84
2023/03/04 04:34:06;;;;;;;16.10;9.17;;;3.70;99.90;;;;;;5005628;28;20196;-83
2023/03/04 04:36:32;;;;;;;18.90;8.10;;;3.70;99.90;;;;;;5005493;28;20357;-83
2023/03/04 04:38:58;;;;;;;14.17;7.60;;;3.70;99.90;;;;;;5004508;28;20190;-83
2023/03/04 04:41:30;;;;;;;14.40;8.27;;;3.70;99.90;;;;;;5004264;28;20270;-83
2023/03/04 04:43:56;;;;;;;15.50;7.87;;;3.70;99.90;;;;;;5004470;28;20207;-83
2023/03/04 04:46:22;;;;;;;12.63;7.80;;;3.70;99.90;;;;;;5004373;28;20248;-83
2023/03/04 04:48:48;;;;;;;13.90;7.70;;;3.70;99.90;;;;;;5004289;28;20258;-83
2023/03/04 04:51:14;;;;;;;17.23;7.57;;;3.80;99.90;;;;;;5004494;28;20172;-84
2023/03/04 04:53:40;;;;;;;14.50;7.20;;;3.80;99.90;;;;;;5004011;28;20572;-83
2023/03/04 04:56:18;;;;;;;21.80;7.77;;;3.80;99.90;;;;;;5003980;28;20183;-83
2023/03/04 04:58:46;;;;;;;18.10;8.27;;;3.70;99.90;;;;;;5000992;28;20175;-83
2023/03/04 05:01:12;;;;;;;18.53;8.27;;;3.70;99.90;;;;;;4999959;28;20180;-83
2023/03/04 05:03:39;;;;;;;17.87;8.27;;;3.80;99.90;;;;;;5000119;28;20207;-83
2023/03/04 05:06:06;;;;;;;20.47;8.37;;;3.80;99.90;;;;;;5001024;28;20204;-83
2023/03/04 05:08:33;;;;;;;17.03;8.00;;;3.70;99.90;;;;;;5001060;28;20187;-84
2023/03/04 05:10:59;;;;;;;17.53;7.67;;;3.80;99.90;;;;;;5001352;28;20183;-83
2023/03/04 05:13:24;;;;;;;12.50;7.33;;;3.80;99.90;;;;;;5001774;28;20199;-83
2023/03/04 05:15:52;;;;;;;13.20;7.83;;;3.70;99.90;;;;;;5001648;28;20186;-83
2023/03/04 05:18:18;;;;;;;11.30;7.17;;;3.70;99.90;;;;;;5019920;28;20283;-83
2023/03/04 05:20:44;;;;;;;14.07;7.80;;;3.70;99.90;;;;;;5002629;28;20555;-82
2023/03/04 05:23:09;;;;;;;14.40;8.97;;;3.70;99.90;;;;;;5002206;28;20226;-83
2023/03/04 05:25:35;;;;;;;14.87;7.50;;;3.70;99.90;;;;;;5002548;28;20200;-82
2023/03/04 05:28:01;;;;;;;15.27;8.13;;;3.70;99.90;;;;;;5002781;28;20182;-82
2023/03/04 05:30:27;;;;;;;11.50;7.27;;;3.70;99.90;;;;;;5003431;28;20271;-82
2023/03/04 05:32:53;;;;;;;12.30;7.50;;;3.70;99.90;;;;;;5002897;28;20196;-81
2023/03/04 05:35:18;;;;;;;22.37;8.33;;;3.70;99.90;;;;;;5003023;28;20195;-81
2023/03/04 05:37:44;;;;;;;19.87;8.17;;;3.70;99.90;;;;;;5002792;28;20203;-81
2023/03/04 05:40:10;;;;;;;16.30;7.47;;;3.80;99.90;;;;;;5003747;28;20192;-81
2023/03/04 05:42:36;;;;;;;14.77;7.57;;;3.70;99.90;;;;;;5002889;28;20199;-82
2023/03/04 05:45:02;;;;;;;18.23;8.70;;;3.80;99.90;;;;;;5002676;28;20234;-82
2023/03/04 05:47:28;;;;;;;17.97;7.93;;;3.80;99.90;;;;;;5002379;28;20214;-83
2023/03/04 05:49:54;;;;;;;19.03;8.67;;;3.80;99.90;;;;;;5003155;28;20715;-82
2023/03/04 05:52:20;;;;;;;16.47;7.97;;;3.80;99.90;;;;;;5002632;28;20180;-82
2023/03/04 05:54:45;;;;;;;20.40;8.50;;;3.80;99.90;;;;;;5002462;28;20188;-83
2023/03/04 05:57:11;;;;;;;13.43;7.63;;;3.80;99.90;;;;;;5002784;28;20291;-82
2023/03/04 05:59:37;;;;;;;17.27;8.30;;;3.80;99.90;;;;;;5008148;28;20206;-82
2023/03/04 06:02:03;;;;;;;13.90;8.13;;;3.80;99.90;;;;;;5014715;28;20523;-82
2023/03/04 06:04:29;;;;;;;12.83;7.73;;;3.80;99.90;;;;;;5013522;28;20219;-81
2023/03/04 06:06:54;;;;;;;15.37;7.53;;;3.80;99.90;;;;;;5005263;28;20175;-82
2023/03/04 06:09:20;;;;;;;12.23;7.17;;;3.70;99.90;;;;;;5003409;28;20559;-82
2023/03/04 06:11:46;;;;;;;17.57;8.53;;;3.70;99.90;;;;;;5021008;28;20177;-81
2023/03/04 06:14:11;;;;;;;21.37;7.43;;;3.70;99.90;;;;;;4999410;28;20287;-82
2023/03/04 06:16:37;;;;;;;20.43;8.13;;;3.70;99.90;;;;;;5016822;28;20183;-82
2023/03/04 06:19:03;;;;;;;18.03;9.13;;;3.70;99.90;;;;;;4999205;28;20172;-82
2023/03/04 06:21:29;;;;;;;18.63;7.70;;;3.70;99.90;;;;;;4999151;28;20180;-82
2023/03/04 06:23:54;;;;;;;20.33;7.93;;;3.70;99.90;;;;;;4998846;28;20598;-81
2023/03/04 06:26:20;;;;;;;12.93;7.30;;;3.70;99.90;;;;;;4998699;28;20215;-81
2023/03/04 06:28:46;;;;;;;17.53;8.67;;;3.70;99.90;;;;;;5014862;28;20172;-81
2023/03/04 06:31:12;;;;;;;9.07;7.20;;;3.70;99.90;;;;;;4997448;28;20712;-81
2023/03/04 06:33:37;;;;;;;15.93;7.73;;;3.70;99.90;;;;;;4997149;28;20203;-81
2023/03/04 06:36:03;;;;;;;12.20;7.67;;;3.70;99.90;;;;;;5015192;28;20593;-81
2023/03/04 06:38:29;;;;;;;11.33;7.80;;;3.80;99.90;;;;;;4998297;28;20266;-81
2023/03/04 06:40:55;;;;;;;10.67;7.10;;;3.80;99.90;;;;;;4998206;28;20661;-81
2023/03/04 06:43:20;;;;;;;17.63;7.77;;;3.80;99.90;;;;;;5015765;28;20287;-81
2023/03/04 06:45:46;;;;;;;12.40;7.43;;;3.80;99.90;;;;;;4997325;28;20231;-81
2023/03/04 06:48:12;;;;;;;12.73;7.77;;;3.80;99.90;;;;;;4997768;28;20171;-81
2023/03/04 06:50:41;;;;;;;16.10;8.30;;;3.80;99.90;;;;;;5015309;28;20270;-81
2023/03/04 06:53:07;;;;;;;17.07;7.67;;;3.90;99.90;;;;;;4998252;28;20325;-81
2023/03/04 06:55:32;;;;;;;17.17;7.97;;;3.90;99.90;;;;;;4999647;28;20180;-81
2023/03/04 06:57:58;;;;;;;12.13;7.53;;;3.90;99.90;;;;;;5002943;28;20183;-81
2023/03/04 07:00:24;;;;;;;11.60;7.10;;;3.90;99.90;;;;;;5002869;28;20180;-81
2023/03/04 07:02:50;;;;;;;13.27;7.57;;;3.90;99.90;;;;;;5002639;28;20195;-81
2023/03/04 07:05:16;;;;;;;17.37;8.00;;;3.90;99.90;;;;;;5002805;28;20204;-81
2023/03/04 07:07:41;;;;;;;8.67;7.00;;;3.90;99.90;;;;;;5002717;28;20198;-81
2023/03/04 07:10:09;;;;;;;9.77;6.83;;;3.90;99.90;;;;;;5020429;28;20172;-81
2023/03/04 07:12:35;;;;;;;20.17;8.30;;;3.90;99.90;;;;;;5002781;28;20214;-81
2023/03/04 07:15:01;;;;;;;17.10;7.77;;;3.90;99.90;;;;;;5002983;28;20222;-81
2023/03/04 07:17:27;;;;;;;11.70;7.47;;;3.90;99.90;;;;;;5003013;28;20180;-81
2023/03/04 07:19:53;;;;;;;14.00;7.20;;;3.90;99.90;;;;;;5021692;28;20170;-82
2023/03/04 07:22:18;;;;;;;15.10;7.80;;;4.00;99.90;;;;;;5002838;28;20215;-82
2023/03/04 07:24:44;;;;;;;26.60;8.77;;;4.00;99.90;;;;;;5020243;28;20255;-81
2023/03/04 07:27:10;;;;;;;14.50;7.23;;;4.00;99.90;;;;;;5003874;28;20194;-81
2023/03/04 07:29:35;;;;;;;14.80;7.80;;;4.00;99.90;;;;;;5020065;28;20172;-81
2023/03/04 07:32:01;;;;;;;12.57;7.57;;;4.00;99.90;;;;;;5003240;28;20186;-81
2023/03/04 07:34:27;;;;;;;14.60;7.63;;;4.00;99.90;;;;;;5002633;28;20706;-81
2023/03/04 07:36:52;;;;;;;15.77;7.67;;;4.10;99.90;;;;;;5002206;28;20218;-82
2023/03/04 07:39:18;;;;;;;9.37;7.33;;;4.10;99.90;;;;;;5003063;28;20187;-82
2023/03/04 07:41:44;;;;;;;9.47;7.10;;;4.10;99.90;;;;;;5002424;28;20191;-82
2023/03/04 07:44:12;;;;;;;17.30;7.87;;;4.10;99.90;;;;;;5020667;28;20302;-81
2023/03/04 07:46:38;;;;;;;12.93;7.53;;;4.10;99.90;;;;;;5002286;28;20179;-81
2023/03/04 07:49:03;;;;;;;12.07;8.20;;;4.10;99.90;;;;;;5020709;28;20163;-81
2023/03/04 07:51:29;;;;;;;13.03;8.13;;;4.10;99.90;;;;;;5002060;28;20262;-81
2023/03/04 07:53:58;;;;;;;15.33;8.60;;;4.10;99.90;;;;;;5002740;28;20572;-82
2023/03/04 07:56:27;;;;;;;10.53;7.97;;;4.10;99.90;;;;;;5002833;28;20211;-82
2023/03/04 07:58:53;;;;;;;21.20;8.00;;;4.10;99.90;;;;;;5002877;28;20194;-82
2023/03/04 08:01:24;;;;;;;25.43;8.60;;;4.10;99.90;;;;;;5003345;28;20274;-83
2023/03/04 08:03:50;;;;;;;14.77;7.30;;;4.10;99.90;;;;;;5003810;28;20226;-82
2023/03/04 08:06:18;;;;;;;15.87;8.30;;;4.20;99.90;;;;;;5007086;28;20200;-82
2023/03/04 08:08:44;;;;;;;12.03;7.50;;;4.20;99.90;;;;;;5011999;28;20176;-83
2023/03/04 08:11:20;;;;;;;17.30;9.07;;;4.30;99.90;;;;;;5010643;28;20281;-83
2023/03/04 08:13:46;;;;;;;19.53;8.10;;;4.30;99.90;;;;;;5003182;28;20195;-82
2023/03/04 08:16:16;;;;;;;10.50;7.50;;;4.40;99.90;;;;;;5004710;28;20176;-82
2023/03/04 08:18:47;;;;;;;12.20;7.23;;;4.50;99.90;;;;;;5023303;28;20170;-82
2023/03/04 08:21:14;;;;;;;10.23;7.13;;;4.50;99.90;;;;;;5023848;28;20164;-82
2023/03/04 08:23:43;;;;;;;15.23;7.30;;;4.50;99.90;;;;;;5005505;28;20664;-83
2023/03/04 08:26:18;;;;;;;15.30;7.77;;;4.50;99.90;;;;;;5009070;28;20282;-83
2023/03/04 08:28:45;;;;;;;17.57;8.37;;;4.50;99.90;;;;;;5004617;28;20188;-83
2023/03/04 08:31:16;;;;;;;16.93;8.23;;;4.50;99.90;;;;;;5002784;28;20184;-80
2023/03/04 08:33:41;;;;;;;8.50;7.60;;;4.60;99.90;;;;;;5019543;28;20195;-80
2023/03/04 08:36:08;;;;;;;9.37;7.40;;;4.60;99.90;;;;;;5002347;28;20179;-81
2023/03/04 08:38:34;;;;;;;9.77;7.43;;;4.70;99.90;;;;;;5004334;28;20660;-81
2023/03/04 08:41:01;;;;;;;13.73;7.33;;;4.70;99.90;;;;;;5004329;28;20184;-81
2023/03/04 08:43:27;;;;;;;9.70;8.00;;;4.70;99.90;;;;;;5004056;28;20199;-81
2023/03/04 08:45:53;;;;;;;15.40;7.70;;;4.80;99.90;;;;;;5002820;28;20203;-81
2023/03/04 08:48:20;;;;;;;15.20;6.90;;;4.90;99.90;;;;;;5022177;28;20176;-81
2023/03/04 08:50:46;;;;;;;11.73;7.20;;;5.00;99.90;;;;;;5005255;28;20183;-81
2023/03/04 08:53:12;;;;;;;15.43;7.33;;;5.10;99.90;;;;;;5004747;28;20203;-81
2023/03/04 08:55:39;;;;;;;8.77;6.63;;;5.10;99.90;;;;;;5005297;28;20175;-81
2023/03/04 08:58:06;;;;;;;15.37;7.63;;;5.10;99.90;;;;;;5005732;28;20183;-81
2023/03/04 09:00:32;;;;;;;7.43;6.73;;;5.20;99.90;;;;;;5023651;28;20275;-81
2023/03/04 09:02:58;;;;;;;10.27;6.93;;;5.20;99.90;;;;;;5005428;28;20568;-81
2023/03/04 09:05:24;;;;;;;9.70;6.90;;;5.40;99.90;;;;;;5005274;28;20199;-81
2023/03/04 09:07:50;;;;;;;12.73;7.37;;;5.20;99.90;;;;;;5003139;28;20179;-81
2023/03/04 09:10:16;;;;;;;12.47;7.40;;;5.20;99.90;;;;;;5003442;28;20242;-81
2023/03/04 09:12:41;;;;;;;15.40;7.33;;;5.20;99.90;;;;;;5002465;28;20199;-81
2023/03/04 09:15:08;;;;;;;9.43;7.63;;;5.20;99.90;;;;;;5018536;28;20189;-81
2023/03/04 09:17:33;;;;;;;12.57;6.90;;;5.20;99.90;;;;;;5002216;28;20171;-80
2023/03/04 09:19:59;;;;;;;13.87;6.90;;;5.30;99.90;;;;;;5001078;28;20513;-81
2023/03/04 09:22:25;;;;;;;9.47;6.70;;;5.30;99.90;;;;;;5018444;28;20295;-80
2023/03/04 09:24:50;;;;;;;12.37;6.70;;;5.30;99.90;;;;;;5000832;28;20204;-81
2023/03/04 09:27:16;;;;;;;10.00;7.07;;;5.20;99.90;;;;;;5018490;28;20179;-81
2023/03/04 09:29:43;;;;;;;14.23;7.50;;;5.10;99.90;;;;;;5000235;28;20184;-81
2023/03/04 09:32:09;;;;;;;14.33;7.30;;;5.10;99.90;;;;;;5018254;28;20173;-82
2023/03/04 09:34:34;;;;;;;10.50;7.37;;;5.00;99.90;;;;;;5018367;28;20218;-81
2023/03/04 09:37:00;;;;;;;16.77;7.67;;;5.00;99.90;;;;;;5018109;28;20207;-81
2023/03/04 09:39:26;;;;;;;9.30;7.30;;;4.90;99.90;;;;;;5001693;28;20176;-81
2023/03/04 09:41:56;;;;;;;12.33;7.67;;;4.90;99.90;;;;;;5001292;28;20198;-81
2023/03/04 09:44:39;;;;;;;10.83;7.20;;;4.90;99.90;;;;;;5020315;28;20199;-81
2023/03/04 09:47:16;;;;;;;11.80;7.30;;;5.10;99.90;;;;;;4999321;28;20247;-81
2023/03/04 09:49:48;;;;;;;16.90;8.30;;;5.10;99.90;;;;;;4999525;28;20160;-81
2023/03/04 09:52:20;;;;;;;14.33;8.00;;;5.00;99.90;;;;;;5015579;28;20163;-81
2023/03/04 09:55:00;;;;;;;18.57;8.73;;;5.00;99.90;;;;;;4998172;28;20255;-81
2023/03/04 09:57:28;;;;;;;11.53;8.07;;;4.90;99.90;;;;;;5016672;28;20628;-81
2023/03/04 10:00:11;;;;;;;14.50;8.27;;;5.00;99.90;;;;;;5016452;28;20176;-81
2023/03/04 10:03:04;;;;;;;13.60;8.87;;;5.00;99.90;;;;;;5005273;28;20203;-81
2023/03/04 10:05:33;;;;;;;11.13;8.33;;;4.90;99.90;;;;;;5026825;28;20195;-81
2023/03/04 10:08:30;;;;;;;12.53;7.67;;;4.90;99.90;;;;;;5003762;28;20195;-81
2023/03/04 10:10:59;;;;;;;10.57;7.40;;;4.90;99.90;;;;;;5020658;28;20195;-81
2023/03/04 10:13:42;;;;;;;10.13;7.77;;;5.00;99.90;;;;;;5001751;28;20560;-81
2023/03/04 10:16:13;;;;;;;13.10;7.67;;;5.10;99.90;;;;;;5020018;28;20160;-81
2023/03/04 10:18:44;;;;;;;10.87;6.87;;;5.10;99.90;;;;;;5002982;28;20172;-81
2023/03/04 10:21:25;;;;;;;9.10;7.50;;;5.20;99.90;;;;;;5003120;28;20172;-81
2023/03/04 10:23:53;;;;;;;8.33;7.17;;;5.20;99.90;;;;;;5019552;28;20246;-81
2023/03/04 10:26:21;;;;;;;10.40;7.20;;;5.20;99.90;;;;;;5001811;28;20200;-81
2023/03/04 10:28:48;;;;;;;14.00;6.97;;;5.20;99.90;;;;;;5002606;28;20179;-81
2023/03/04 10:31:13;;;;;;;10.40;7.10;;;5.10;99.90;;;;;;5017990;28;20168;-81
2023/03/04 10:33:40;;;;;;;7.57;6.70;;;5.10;99.90;;;;;;5001010;28;20211;-81
2023/03/04 10:36:27;;;;;;;7.10;6.37;;;5.10;99.90;;;;;;4999931;28;20218;-81
2023/03/04 10:39:04;;;;;;;8.40;6.73;;;5.30;99.90;;;;;;5000732;28;20176;-81
2023/03/04 10:41:31;;;;;;;8.70;7.57;;;5.40;99.90;;;;;;5000588;28;20259;-82
2023/03/04 10:44:09;;;;;;;8.77;6.77;;;5.60;99.90;;;;;;5000164;28;20200;-82
2023/03/04 10:46:40;;;;;;;9.20;7.27;;;5.70;99.90;;;;;;5020051;28;20178;-82
2023/03/04 10:49:05;;;;;;;9.47;7.20;;;5.70;99.90;;;;;;5000541;28;20636;-82
2023/03/04 10:51:40;;;;;;;9.03;7.20;;;5.90;99.90;;;;;;4999679;28;20175;-82
2023/03/04 10:54:27;;;;;;;10.17;7.73;;;6.00;99.90;;;;;;5000580;28;20643;-82
2023/03/04 10:56:58;;;;;;;14.27;7.87;;;5.90;99.90;;;;;;5000923;28;20179;-82
2023/03/04 10:59:32;;;;;;;9.67;7.10;;;5.90;99.90;;;;;;5000905;28;20233;-82
2023/03/04 11:02:16;;;;;;;8.57;6.87;;;5.80;99.90;;;;;;4999944;28;20629;-82
2023/03/04 11:04:47;;;;;;;13.57;7.43;;;5.80;99.90;;;;;;5018069;28;20190;-81
2023/03/04 11:07:14;;;;;;;12.10;8.07;;;5.80;99.90;;;;;;5002234;28;20194;-81
2023/03/04 11:09:42;;;;;;;10.63;8.00;;;5.80;99.90;;;;;;5004028;28;20246;-82
2023/03/04 11:12:13;;;;;;;10.07;7.50;;;5.70;99.90;;;;;;5004182;28;20176;-82
2023/03/04 11:14:51;;;;;;;10.50;7.90;;;5.70;99.90;;;;;;5019839;28;20506;-82
2023/03/04 11:17:19;;;;;;;12.83;8.40;;;5.70;99.90;;;;;;5002234;28;20225;-82
2023/03/04 11:19:51;;;;;;;10.30;7.40;;;5.70;99.90;;;;;;5000701;28;20168;-81
2023/03/04 11:22:20;;;;;;;9.77;7.00;;;5.70;99.90;;;;;;4997596;28;20255;-81
2023/03/04 11:24:56;;;;;;;12.70;8.20;;;5.70;99.90;;;;;;5000282;28;20199;-81
2023/03/04 11:27:31;;;;;;;13.00;9.07;;;5.70;99.90;;;;;;4999676;28;20168;-81
2023/03/04 11:30:09;;;;;;;12.40;9.80;;;5.80;99.90;;;;;;5000835;28;20617;-82
2023/03/04 11:32:42;;;;;;;15.27;9.30;;;5.80;99.90;;;;;;5001518;28;20199;-82
2023/03/04 11:35:33;;;;;;;12.83;8.50;;;5.80;99.90;;;;;;4999743;28;20263;-82
2023/03/04 11:38:17;;;;;;;15.60;8.93;;;5.90;99.90;;;;;;4999079;28;20290;-82
2023/03/04 11:40:48;;;;;;;13.60;9.13;;;6.00;99.90;;;;;;5000904;28;20172;-82
2023/03/04 11:43:35;;;;;;;11.70;9.40;;;5.90;99.90;;;;;;5006410;28;20200;-82
2023/03/04 11:46:14;;;;;;;12.53;8.80;;;5.90;99.90;;;;;;5006713;28;20278;-82
2023/03/04 11:48:48;;;;;;;15.10;9.17;;;5.90;99.90;;;;;;5005758;28;20617;-82
2023/03/04 11:51:39;;;;;;;15.27;9.50;;;5.90;99.90;;;;;;5005281;28;20539;-82
2023/03/04 11:54:22;;;;;;;10.87;8.87;;;5.80;99.90;;;;;;5005298;28;20196;-82
2023/03/04 11:57:18;;;;;;;15.10;8.73;;;5.80;99.90;;;;;;5010857;28;20168;-82
2023/03/04 12:00:13;;;;;;;14.27;9.23;;;5.80;99.90;;;;;;5000636;28;20564;-82
2023/03/04 12:03:10;;;;;;;12.77;9.13;;;5.80;99.90;;;;;;5014450;28;20210;-82
2023/03/04 12:06:05;;;;;;;10.00;8.43;;;5.80;99.90;;;;;;4979190;28;20254;-82
2023/03/04 12:08:43;;;;;;;12.80;9.93;;;5.90;99.90;;;;;;5008073;28;20196;-82
2023/03/04 12:11:42;;;;;;;9.43;8.30;;;5.90;99.90;;;;;;5003727;28;20172;-82
2023/03/04 12:14:26;;;;;;;12.90;9.50;;;6.00;99.90;;;;;;5002884;28;20231;-82
2023/03/04 12:17:11;;;;;;;12.20;9.53;;;6.00;99.90;;;;;;5002603;28;20179;-82
2023/03/04 12:19:42;;;;;;;14.37;9.33;;;6.00;99.90;;;;;;5002465;28;20226;-82
2023/03/04 12:22:14;;;;;;;13.77;9.43;;;6.00;99.90;;;;;;5003423;28;20192;-82
2023/03/04 12:24:47;;;;;;;13.13;10.00;;;5.90;99.90;;;;;;5002671;28;20223;-82
2023/03/04 12:27:51;;;;;;;18.93;11.30;;;5.90;99.90;;;;;;5002387;28;20282;-82
2023/03/04 12:30:42;;;;;;;17.30;11.73;;;5.90;99.90;;;;;;4969814;28;20187;-82
2023/03/04 12:33:19;;;;;;;25.80;15.90;;;5.90;99.90;;;;;;5020975;28;20198;-82
2023/03/04 12:36:03;;;;;;;14.23;11.97;;;6.00;99.90;;;;;;5002487;28;20175;-82
2023/03/04 12:38:58;;;;;;;19.20;10.63;;;5.90;99.90;;;;;;5020028;28;20160;-82
2023/03/04 12:41:29;;;;;;;14.77;9.60;;;6.10;99.90;;;;;;5019653;28;20179;-82
2023/03/04 12:43:58;;;;;;;10.20;8.80;;;6.10;99.90;;;;;;5003155;28;20230;-82
2023/03/04 12:47:05;;;;;;;13.67;8.83;;;6.10;99.90;;;;;;5021286;28;20200;-82
2023/03/04 12:49:41;;;;;;;8.80;7.57;;;6.10;99.90;;;;;;4971403;28;20183;-82
2023/03/04 12:52:31;;;;;;;8.73;7.20;;;6.20;99.90;;;;;;5001868;28;20167;-82
2023/03/04 12:55:09;;;;;;;8.97;6.80;;;6.30;99.90;;;;;;5000736;28;20299;-82
2023/03/04 12:57:36;;;;;;;8.90;6.93;;;6.30;99.90;;;;;;5017725;28;20510;-82